sensor_id;sensor_type;location;lat;lon;timestamp;pressure;altitude;pressure_sealevel;temperature;humidity
71795;BME280;59641;45.188;5.712;2023-01-31T00:00:22;100296.03;;;6.87;54.97
71795;BME280;59641;45.188;5.712;2023-01-31T00:02:47;100298.53;;;6.89;55.14
71795;BME280;59641;45.188;5.712;2023-01-31T00:05:13;100286.69;;;6.91;55.13
71795;BME280;59641;45.188;5.712;2023-01-31T00:07:38;100287.69;;;6.90;55.07
71795;BME280;59641;45.188;5.712;2023-01-31T00:10:04;100285.19;;;6.89;55.38
71795;BME280;59641;45.188;5.712;2023-01-31T00:12:29;100274.53;;;6.89;55.03
71795;BME280;59641;45.188;5.712;2023-01-31T00:14:54;100273.50;;;6.90;55.17
71795;BME280;59641;45.188;5.712;2023-01-31T00:17:20;100274.00;;;6.93;55.17
71795;BME280;59641;45.188;5.712;2023-01-31T00:19:45;100269.97;;;6.97;55.11
71795;BME280;59641;45.188;5.712;2023-01-31T00:22:11;100277.44;;;7.02;55.18
71795;BME280;59641;45.188;5.712;2023-01-31T00:24:36;100272.78;;;7.04;55.12
71795;BME280;59641;45.188;5.712;2023-01-31T00:27:01;100274.94;;;7.09;55.30
71795;BME280;59641;45.188;5.712;2023-01-31T00:29:27;100274.25;;;7.15;55.04
71795;BME280;59641;45.188;5.712;2023-01-31T00:31:52;100268.53;;;7.18;54.78
71795;BME280;59641;45.188;5.712;2023-01-31T00:34:17;100268.38;;;7.19;54.83
71795;BME280;59641;45.188;5.712;2023-01-31T00:36:43;100269.00;;;7.21;54.82
71795;BME280;59641;45.188;5.712;2023-01-31T00:39:09;100268.84;;;7.23;54.86
71795;BME280;59641;45.188;5.712;2023-01-31T00:41:36;100265.34;;;7.22;54.70
71795;BME280;59641;45.188;5.712;2023-01-31T00:44:02;100267.84;;;7.24;54.56
71795;BME280;59641;45.188;5.712;2023-01-31T00:46:27;100262.03;;;7.20;54.72
71795;BME280;59641;45.188;5.712;2023-01-31T00:48:53;100264.53;;;7.22;54.64
71795;BME280;59641;45.188;5.712;2023-01-31T00:51:21;100258.69;;;7.18;54.36
71795;BME280;59641;45.188;5.712;2023-01-31T00:53:47;100259.50;;;7.19;54.55
71795;BME280;59641;45.188;5.712;2023-01-31T00:56:16;100256.84;;;7.19;54.66
71795;BME280;59641;45.188;5.712;2023-01-31T00:58:42;100248.38;;;7.15;55.06
71795;BME280;59641;45.188;5.712;2023-01-31T01:01:10;100260.03;;;7.14;54.90
71795;BME280;59641;45.188;5.712;2023-01-31T01:03:38;100257.25;;;7.08;54.55
71795;BME280;59641;45.188;5.712;2023-01-31T01:06:04;100273.78;;;7.03;54.46
71795;BME280;59641;45.188;5.712;2023-01-31T01:08:31;100272.13;;;7.02;53.75
71795;BME280;59641;45.188;5.712;2023-01-31T01:11:21;100264.81;;;6.96;53.14
71795;BME280;59641;45.188;5.712;2023-01-31T01:13:47;100263.66;;;6.90;53.15
71795;BME280;59641;45.188;5.712;2023-01-31T01:16:22;100270.03;;;6.89;52.73
71795;BME280;59641;45.188;5.712;2023-01-31T01:18:49;100261.19;;;6.89;52.70
71795;BME280;59641;45.188;5.712;2023-01-31T01:21:17;100270.84;;;6.90;52.64
71795;BME280;59641;45.188;5.712;2023-01-31T01:23:44;100269.66;;;6.92;52.73
71795;BME280;59641;45.188;5.712;2023-01-31T01:26:20;100276.69;;;6.93;52.48
71795;BME280;59641;45.188;5.712;2023-01-31T01:28:49;100277.50;;;6.94;52.46
71795;BME280;59641;45.188;5.712;2023-01-31T01:31:16;100277.66;;;6.92;52.37
71795;BME280;59641;45.188;5.712;2023-01-31T01:33:42;100279.69;;;6.90;51.92
71795;BME280;59641;45.188;5.712;2023-01-31T01:36:09;100294.69;;;6.91;51.96
71795;BME280;59641;45.188;5.712;2023-01-31T01:38:40;100285.88;;;6.91;51.82
71795;BME280;59641;45.188;5.712;2023-01-31T01:41:06;100286.69;;;6.91;51.83
71795;BME280;59641;45.188;5.712;2023-01-31T01:43:49;100283.34;;;6.89;51.38
71795;BME280;59641;45.188;5.712;2023-01-31T01:48:58;100296.38;;;6.84;51.14
71795;BME280;59641;45.188;5.712;2023-01-31T01:51:26;100309.41;;;6.79;51.08
71795;BME280;59641;45.188;5.712;2023-01-31T01:53:56;100298.09;;;6.77;51.03
71795;BME280;59641;45.188;5.712;2023-01-31T01:56:32;100305.28;;;6.68;51.07
71795;BME280;59641;45.188;5.712;2023-01-31T01:59:24;100300.78;;;6.60;51.07
71795;BME280;59641;45.188;5.712;2023-01-31T02:01:51;100311.00;;;6.57;51.04
71795;BME280;59641;45.188;5.712;2023-01-31T02:04:24;100309.50;;;6.54;51.20
71795;BME280;59641;45.188;5.712;2023-01-31T02:06:51;100311.16;;;6.55;51.15
71795;BME280;59641;45.188;5.712;2023-01-31T02:09:48;100311.97;;;6.56;51.14
71795;BME280;59641;45.188;5.712;2023-01-31T02:12:15;100307.47;;;6.56;50.82
71795;BME280;59641;45.188;5.712;2023-01-31T02:14:41;100318.16;;;6.48;50.83
71795;BME280;59641;45.188;5.712;2023-01-31T02:17:14;100316.50;;;6.47;51.06
71795;BME280;59641;45.188;5.712;2023-01-31T02:22:32;100309.34;;;6.39;50.95
71795;BME280;59641;45.188;5.712;2023-01-31T02:39:40;100328.88;;;6.07;50.97
71795;BME280;59641;45.188;5.712;2023-01-31T02:45:10;100335.38;;;6.05;50.65
71795;BME280;59641;45.188;5.712;2023-01-31T02:50:33;100333.50;;;5.89;50.81
71795;BME280;59641;45.188;5.712;2023-01-31T02:55:32;100332.66;;;5.80;51.26
71795;BME280;59641;45.188;5.712;2023-01-31T02:58:19;100351.47;;;5.87;51.09
71795;BME280;59641;45.188;5.712;2023-01-31T03:00:46;100351.16;;;5.90;51.26
71795;BME280;59641;45.188;5.712;2023-01-31T03:03:21;100354.81;;;5.89;50.98
71795;BME280;59641;45.188;5.712;2023-01-31T03:08:32;100363.81;;;5.88;51.00
71795;BME280;59641;45.188;5.712;2023-01-31T03:11:02;100369.13;;;5.88;50.95
71795;BME280;59641;45.188;5.712;2023-01-31T03:13:43;100369.47;;;5.85;50.89
71795;BME280;59641;45.188;5.712;2023-01-31T03:16:27;100371.28;;;5.76;51.00
71795;BME280;59641;45.188;5.712;2023-01-31T03:19:29;100387.88;;;5.70;51.02
71795;BME280;59641;45.188;5.712;2023-01-31T03:22:09;100381.75;;;5.69;51.16
71795;BME280;59641;45.188;5.712;2023-01-31T03:24:37;100393.41;;;5.68;51.21
71795;BME280;59641;45.188;5.712;2023-01-31T03:27:04;100396.56;;;5.72;51.34
71795;BME280;59641;45.188;5.712;2023-01-31T03:29:32;100389.56;;;5.71;51.26
71795;BME280;59641;45.188;5.712;2023-01-31T03:32:07;100393.56;;;5.67;51.08
71795;BME280;59641;45.188;5.712;2023-01-31T03:34:36;100392.38;;;5.61;51.31
71795;BME280;59641;45.188;5.712;2023-01-31T03:37:09;100392.72;;;5.58;51.13
71795;BME280;59641;45.188;5.712;2023-01-31T03:39:41;100405.03;;;5.59;51.45
71795;BME280;59641;45.188;5.712;2023-01-31T03:42:20;100396.34;;;5.57;51.51
71795;BME280;59641;45.188;5.712;2023-01-31T03:44:57;100401.34;;;5.60;51.56
71795;BME280;59641;45.188;5.712;2023-01-31T03:47:33;100401.19;;;5.53;51.40
71795;BME280;59641;45.188;5.712;2023-01-31T03:50:11;100401.69;;;5.57;51.57
71795;BME280;59641;45.188;5.712;2023-01-31T03:52:43;100411.50;;;5.57;51.40
71795;BME280;59641;45.188;5.712;2023-01-31T03:55:23;100410.69;;;5.56;51.51
71795;BME280;59641;45.188;5.712;2023-01-31T03:57:54;100402.34;;;5.59;51.63
71795;BME280;59641;45.188;5.712;2023-01-31T04:00:22;100407.88;;;5.66;51.74
71795;BME280;59641;45.188;5.712;2023-01-31T04:02:57;100418.38;;;5.75;51.81
71795;BME280;59641;45.188;5.712;2023-01-31T04:05:28;100403.38;;;5.74;51.74
71795;BME280;59641;45.188;5.712;2023-01-31T04:07:57;100418.06;;;5.79;51.79
71795;BME280;59641;45.188;5.712;2023-01-31T04:10:24;100415.91;;;5.82;51.57
71795;BME280;59641;45.188;5.712;2023-01-31T04:12:50;100422.06;;;5.83;51.44
71795;BME280;59641;45.188;5.712;2023-01-31T04:15:16;100427.53;;;5.81;51.44
71795;BME280;59641;45.188;5.712;2023-01-31T04:17:41;100420.38;;;5.82;51.50
71795;BME280;59641;45.188;5.712;2023-01-31T04:20:07;100429.38;;;5.81;51.50
71795;BME280;59641;45.188;5.712;2023-01-31T04:22:34;100425.84;;;5.72;51.37
71795;BME280;59641;45.188;5.712;2023-01-31T04:24:59;100431.50;;;5.69;51.40
71795;BME280;59641;45.188;5.712;2023-01-31T04:27:25;100439.97;;;5.64;51.41
71795;BME280;59641;45.188;5.712;2023-01-31T04:29:50;100445.44;;;5.54;51.42
71795;BME280;59641;45.188;5.712;2023-01-31T04:32:16;100451.56;;;5.47;51.52
71795;BME280;59641;45.188;5.712;2023-01-31T04:34:41;100451.38;;;5.40;51.42
71795;BME280;59641;45.188;5.712;2023-01-31T04:37:06;100455.50;;;5.34;51.53
71795;BME280;59641;45.188;5.712;2023-01-31T04:39:32;100456.81;;;5.30;51.57
71795;BME280;59641;45.188;5.712;2023-01-31T04:41:57;100451.81;;;5.27;51.89
71795;BME280;59641;45.188;5.712;2023-01-31T04:44:22;100457.75;;;5.21;51.96
71795;BME280;59641;45.188;5.712;2023-01-31T04:46:48;100462.03;;;5.14;51.86
71795;BME280;59641;45.188;5.712;2023-01-31T04:49:13;100458.88;;;5.10;52.12
71795;BME280;59641;45.188;5.712;2023-01-31T04:51:39;100453.84;;;5.07;52.19
71795;BME280;59641;45.188;5.712;2023-01-31T04:54:05;100462.38;;;5.11;52.37
71795;BME280;59641;45.188;5.712;2023-01-31T04:56:31;100454.16;;;5.04;52.13
71795;BME280;59641;45.188;5.712;2023-01-31T04:58:56;100465.50;;;5.06;52.26
71795;BME280;59641;45.188;5.712;2023-01-31T05:01:22;100458.34;;;5.07;52.30
71795;BME280;59641;45.188;5.712;2023-01-31T05:03:47;100465.34;;;5.08;52.30
71795;BME280;59641;45.188;5.712;2023-01-31T05:06:13;100475.00;;;5.09;52.20
71795;BME280;59641;45.188;5.712;2023-01-31T05:08:38;100467.16;;;5.07;52.22
71795;BME280;59641;45.188;5.712;2023-01-31T05:11:04;100474.16;;;5.08;52.28
71795;BME280;59641;45.188;5.712;2023-01-31T05:13:33;100472.19;;;5.10;52.27
71795;BME280;59641;45.188;5.712;2023-01-31T05:16:08;100468.00;;;5.08;52.46
71795;BME280;59641;45.188;5.712;2023-01-31T05:18:35;100471.19;;;5.11;52.22
71795;BME280;59641;45.188;5.712;2023-01-31T05:21:01;100477.50;;;5.10;52.27
71795;BME280;59641;45.188;5.712;2023-01-31T05:23:28;100472.00;;;5.12;52.37
71795;BME280;59641;45.188;5.712;2023-01-31T05:25:53;100471.19;;;5.11;52.46
71795;BME280;59641;45.188;5.712;2023-01-31T05:28:18;100474.00;;;5.10;52.15
71795;BME280;59641;45.188;5.712;2023-01-31T05:30:44;100480.78;;;5.04;52.33
71795;BME280;59641;45.188;5.712;2023-01-31T05:33:09;100490.44;;;5.05;52.23
71795;BME280;59641;45.188;5.712;2023-01-31T05:35:35;100491.59;;;5.03;52.21
71795;BME280;59641;45.188;5.712;2023-01-31T05:38:02;100495.38;;;5.00;52.54
71795;BME280;59641;45.188;5.712;2023-01-31T05:40:28;100488.84;;;4.95;52.47
71795;BME280;59641;45.188;5.712;2023-01-31T05:42:57;100496.16;;;4.93;52.60
71795;BME280;59641;45.188;5.712;2023-01-31T05:45:27;100498.66;;;4.94;52.56
71795;BME280;59641;45.188;5.712;2023-01-31T05:47:53;100495.31;;;4.92;52.47
71795;BME280;59641;45.188;5.712;2023-01-31T05:50:19;100501.66;;;4.91;52.65
71795;BME280;59641;45.188;5.712;2023-01-31T05:52:56;100515.09;;;4.89;52.67
71795;BME280;59641;45.188;5.712;2023-01-31T05:55:24;100516.91;;;4.89;52.88
71795;BME280;59641;45.188;5.712;2023-01-31T05:57:51;100516.91;;;4.89;52.89
71795;BME280;59641;45.188;5.712;2023-01-31T06:00:17;100513.25;;;4.90;52.88
71795;BME280;59641;45.188;5.712;2023-01-31T06:02:43;100519.41;;;4.90;52.83
71795;BME280;59641;45.188;5.712;2023-01-31T06:05:09;100526.09;;;4.95;52.74
71795;BME280;59641;45.188;5.712;2023-01-31T06:07:36;100519.81;;;4.96;52.83
71795;BME280;59641;45.188;5.712;2023-01-31T06:10:02;100531.41;;;4.95;52.75
71795;BME280;59641;45.188;5.712;2023-01-31T06:12:27;100533.94;;;4.96;52.81
71795;BME280;59641;45.188;5.712;2023-01-31T06:14:53;100534.31;;;5.01;52.69
71795;BME280;59641;45.188;5.712;2023-01-31T06:17:18;100527.97;;;5.02;52.88
71795;BME280;59641;45.188;5.712;2023-01-31T06:19:44;100536.63;;;5.04;52.89
71795;BME280;59641;45.188;5.712;2023-01-31T06:22:09;100535.81;;;5.04;52.67
71795;BME280;59641;45.188;5.712;2023-01-31T06:24:34;100530.16;;;5.07;52.35
71795;BME280;59641;45.188;5.712;2023-01-31T06:27:00;100528.97;;;5.01;52.59
71795;BME280;59641;45.188;5.712;2023-01-31T06:29:25;100536.28;;;4.99;52.52
71795;BME280;59641;45.188;5.712;2023-01-31T06:31:51;100534.44;;;5.00;52.66
71795;BME280;59641;45.188;5.712;2023-01-31T06:34:18;100535.13;;;5.02;52.67
71795;BME280;59641;45.188;5.712;2023-01-31T06:36:43;100542.41;;;5.00;52.86
71795;BME280;59641;45.188;5.712;2023-01-31T06:39:10;100541.75;;;4.98;52.76
71795;BME280;59641;45.188;5.712;2023-01-31T06:41:35;100548.88;;;4.97;52.54
71795;BME280;59641;45.188;5.712;2023-01-31T06:44:01;100547.38;;;4.95;52.75
71795;BME280;59641;45.188;5.712;2023-01-31T06:46:26;100549.91;;;4.96;52.84
71795;BME280;59641;45.188;5.712;2023-01-31T06:48:51;100546.41;;;4.96;53.02
71795;BME280;59641;45.188;5.712;2023-01-31T06:51:17;100552.25;;;4.99;52.88
71795;BME280;59641;45.188;5.712;2023-01-31T06:53:42;100563.25;;;5.04;52.94
71795;BME280;59641;45.188;5.712;2023-01-31T06:56:08;100565.31;;;5.10;52.91
71795;BME280;59641;45.188;5.712;2023-01-31T06:58:34;100573.31;;;5.19;52.76
71795;BME280;59641;45.188;5.712;2023-01-31T07:01:05;100569.88;;;5.26;52.92
71795;BME280;59641;45.188;5.712;2023-01-31T07:03:30;100583.56;;;5.31;52.79
71795;BME280;59641;45.188;5.712;2023-01-31T07:05:56;100580.44;;;5.36;52.79
71795;BME280;59641;45.188;5.712;2023-01-31T07:08:21;100582.81;;;5.39;52.50
71795;BME280;59641;45.188;5.712;2023-01-31T07:10:47;100579.13;;;5.40;52.51
71795;BME280;59641;45.188;5.712;2023-01-31T07:13:13;100593.13;;;5.42;52.39
71795;BME280;59641;45.188;5.712;2023-01-31T07:15:38;100600.09;;;5.43;52.38
71795;BME280;59641;45.188;5.712;2023-01-31T07:18:04;100602.13;;;5.41;52.38
71795;BME280;59641;45.188;5.712;2023-01-31T07:20:30;100600.44;;;5.40;52.25
71795;BME280;59641;45.188;5.712;2023-01-31T07:22:57;100596.78;;;5.41;52.17
71795;BME280;59641;45.188;5.712;2023-01-31T07:25:23;100602.25;;;5.40;52.17
71795;BME280;59641;45.188;5.712;2023-01-31T07:27:48;100606.06;;;5.37;52.11
71795;BME280;59641;45.188;5.712;2023-01-31T07:30:14;100598.41;;;5.34;52.27
71795;BME280;59641;45.188;5.712;2023-01-31T07:32:39;100606.41;;;5.34;52.39
71795;BME280;59641;45.188;5.712;2023-01-31T07:35:05;100610.16;;;5.31;52.33
71795;BME280;59641;45.188;5.712;2023-01-31T07:37:31;100614.38;;;5.34;52.25
71795;BME280;59641;45.188;5.712;2023-01-31T07:39:56;100609.06;;;5.34;52.65
71795;BME280;59641;45.188;5.712;2023-01-31T07:42:21;100611.53;;;5.36;52.18
71795;BME280;59641;45.188;5.712;2023-01-31T07:44:47;100630.19;;;5.36;52.25
71795;BME280;59641;45.188;5.712;2023-01-31T07:47:12;100639.16;;;5.34;52.26
71795;BME280;59641;45.188;5.712;2023-01-31T07:49:37;100638.34;;;5.34;52.19
71795;BME280;59641;45.188;5.712;2023-01-31T07:52:03;100642.97;;;5.32;52.27
71795;BME280;59641;45.188;5.712;2023-01-31T07:54:28;100642.13;;;5.31;52.32
71795;BME280;59641;45.188;5.712;2023-01-31T07:56:54;100643.13;;;5.30;52.36
71795;BME280;59641;45.188;5.712;2023-01-31T07:59:19;100655.41;;;5.31;52.31
71795;BME280;59641;45.188;5.712;2023-01-31T08:01:44;100655.59;;;5.30;52.40
71795;BME280;59641;45.188;5.712;2023-01-31T08:04:28;100664.72;;;5.27;52.40
71795;BME280;59641;45.188;5.712;2023-01-31T08:06:54;100663.72;;;5.28;52.46
71795;BME280;59641;45.188;5.712;2023-01-31T08:09:21;100667.06;;;5.30;52.51
71795;BME280;59641;45.188;5.712;2023-01-31T08:11:47;100674.06;;;5.31;52.25
71795;BME280;59641;45.188;5.712;2023-01-31T08:14:12;100670.28;;;5.34;52.26
71795;BME280;59641;45.188;5.712;2023-01-31T08:16:37;100666.75;;;5.33;52.27
71795;BME280;59641;45.188;5.712;2023-01-31T08:19:04;100670.28;;;5.34;52.39
71795;BME280;59641;45.188;5.712;2023-01-31T08:21:30;100673.75;;;5.34;52.34
71795;BME280;59641;45.188;5.712;2023-01-31T08:23:55;100679.09;;;5.34;52.27
71795;BME280;59641;45.188;5.712;2023-01-31T08:26:21;100685.09;;;5.37;52.26
71795;BME280;59641;45.188;5.712;2023-01-31T08:28:48;100683.28;;;5.37;52.27
71795;BME280;59641;45.188;5.712;2023-01-31T08:31:18;100687.44;;;5.40;52.25
71795;BME280;59641;45.188;5.712;2023-01-31T08:33:44;100694.44;;;5.41;52.21
71795;BME280;59641;45.188;5.712;2023-01-31T08:36:20;100697.25;;;5.39;52.35
71795;BME280;59641;45.188;5.712;2023-01-31T08:38:47;100696.56;;;5.37;52.17
71795;BME280;59641;45.188;5.712;2023-01-31T08:41:12;100703.28;;;5.41;52.39
71795;BME280;59641;45.188;5.712;2023-01-31T08:43:38;100703.66;;;5.46;52.32
71795;BME280;59641;45.188;5.712;2023-01-31T08:46:05;100705.00;;;5.50;52.25
71795;BME280;59641;45.188;5.712;2023-01-31T08:48:32;100700.22;;;5.54;52.43
71795;BME280;59641;45.188;5.712;2023-01-31T08:51:03;100697.22;;;5.57;52.55
71795;BME280;59641;45.188;5.712;2023-01-31T08:53:29;100696.75;;;5.62;52.22
71795;BME280;59641;45.188;5.712;2023-01-31T08:56:01;100702.78;;;5.64;51.81
71795;BME280;59641;45.188;5.712;2023-01-31T08:58:30;100701.50;;;5.68;52.06
71795;BME280;59641;45.188;5.712;2023-01-31T09:01:00;100699.47;;;5.70;51.98
71795;BME280;59641;45.188;5.712;2023-01-31T09:03:26;100706.81;;;5.68;51.97
71795;BME280;59641;45.188;5.712;2023-01-31T09:05:51;100710.13;;;5.70;51.94
71795;BME280;59641;45.188;5.712;2023-01-31T09:08:16;100709.16;;;5.71;51.84
71795;BME280;59641;45.188;5.712;2023-01-31T09:10:42;100712.50;;;5.73;51.79
71795;BME280;59641;45.188;5.712;2023-01-31T09:13:07;100718.81;;;5.72;51.79
71795;BME280;59641;45.188;5.712;2023-01-31T09:15:32;100717.00;;;5.72;51.80
71795;BME280;59641;45.188;5.712;2023-01-31T09:17:58;100717.66;;;5.74;51.80
71795;BME280;59641;45.188;5.712;2023-01-31T09:20:23;100713.84;;;5.77;51.75
71795;BME280;59641;45.188;5.712;2023-01-31T09:22:48;100719.84;;;5.79;51.89
71795;BME280;59641;45.188;5.712;2023-01-31T09:25:14;100719.84;;;5.79;51.60
71795;BME280;59641;45.188;5.712;2023-01-31T09:27:39;100719.03;;;5.79;51.81
71795;BME280;59641;45.188;5.712;2023-01-31T09:30:06;100720.53;;;5.81;51.64
71795;BME280;59641;45.188;5.712;2023-01-31T09:32:33;100726.56;;;5.83;51.67
71795;BME280;59641;45.188;5.712;2023-01-31T09:34:58;100722.75;;;5.86;51.73
71795;BME280;59641;45.188;5.712;2023-01-31T09:37:24;100730.13;;;5.92;51.68
71795;BME280;59641;45.188;5.712;2023-01-31T09:39:49;100729.00;;;5.94;51.61
71795;BME280;59641;45.188;5.712;2023-01-31T09:42:29;100727.03;;;5.96;51.80
71795;BME280;59641;45.188;5.712;2023-01-31T09:44:59;100720.53;;;5.99;51.59
71795;BME280;59641;45.188;5.712;2023-01-31T09:47:51;100730.56;;;6.05;51.63
71795;BME280;59641;45.188;5.712;2023-01-31T09:50:41;100728.94;;;6.12;51.48
71795;BME280;59641;45.188;5.712;2023-01-31T09:53:12;100731.47;;;6.14;51.49
71795;BME280;59641;45.188;5.712;2023-01-31T09:55:50;100731.13;;;6.17;51.54
71795;BME280;59641;45.188;5.712;2023-01-31T09:58:45;100733.66;;;6.18;51.44
71795;BME280;59641;45.188;5.712;2023-01-31T10:06:35;100731.34;;;6.24;51.29
71795;BME280;59641;45.188;5.712;2023-01-31T10:11:46;100734.16;;;6.22;51.27
71795;BME280;59641;45.188;5.712;2023-01-31T10:14:59;100732.50;;;6.21;51.14
71795;BME280;59641;45.188;5.712;2023-01-31T10:17:26;100722.81;;;6.20;50.67
71795;BME280;59641;45.188;5.712;2023-01-31T10:27:47;100697.31;;;6.17;51.03
71795;BME280;59641;45.188;5.712;2023-01-31T10:30:20;100702.34;;;6.21;51.04
71795;BME280;59641;45.188;5.712;2023-01-31T10:32:51;100698.00;;;6.19;50.95
71795;BME280;59641;45.188;5.712;2023-01-31T10:37:53;100691.69;;;6.21;50.79
71795;BME280;59641;45.188;5.712;2023-01-31T10:40:33;100696.50;;;6.25;51.20
71795;BME280;59641;45.188;5.712;2023-01-31T10:43:09;100701.91;;;6.33;51.27
71795;BME280;59641;45.188;5.712;2023-01-31T10:45:36;100685.72;;;6.35;51.26
71795;BME280;59641;45.188;5.712;2023-01-31T10:50:51;100686.47;;;6.45;51.22
71795;BME280;59641;45.188;5.712;2023-01-31T10:53:51;100695.97;;;6.48;50.95
71795;BME280;59641;45.188;5.712;2023-01-31T10:56:32;100693.31;;;6.48;50.53
71795;BME280;59641;45.188;5.712;2023-01-31T10:59:01;100678.63;;;6.44;50.37
71795;BME280;59641;45.188;5.712;2023-01-31T11:01:29;100672.44;;;6.43;50.48
71795;BME280;59641;45.188;5.712;2023-01-31T11:03:55;100667.94;;;6.44;50.56
71795;BME280;59641;45.188;5.712;2023-01-31T11:06:22;100667.31;;;6.50;50.34
71795;BME280;59641;45.188;5.712;2023-01-31T11:08:55;100652.63;;;6.54;49.99
71795;BME280;59641;45.188;5.712;2023-01-31T11:11:24;100646.47;;;6.45;50.16
71795;BME280;59641;45.188;5.712;2023-01-31T11:16:23;100643.66;;;6.55;50.61
71795;BME280;59641;45.188;5.712;2023-01-31T11:18:51;100629.84;;;6.59;50.38
71795;BME280;59641;45.188;5.712;2023-01-31T11:21:22;100626.69;;;6.64;50.81
71795;BME280;59641;45.188;5.712;2023-01-31T11:23:49;100615.53;;;6.69;50.38
71795;BME280;59641;45.188;5.712;2023-01-31T11:26:28;100606.84;;;6.75;50.58
71795;BME280;59641;45.188;5.712;2023-01-31T11:28:54;100603.06;;;6.86;50.46
71795;BME280;59641;45.188;5.712;2023-01-31T11:31:30;100594.72;;;6.89;50.33
71795;BME280;59641;45.188;5.712;2023-01-31T11:34:01;100596.22;;;6.91;50.11
71795;BME280;59641;45.188;5.712;2023-01-31T11:36:32;100580.88;;;6.93;50.31
71795;BME280;59641;45.188;5.712;2023-01-31T11:41:48;100584.34;;;7.02;50.15
71795;BME280;59641;45.188;5.712;2023-01-31T11:44:18;100584.88;;;7.06;50.14
71795;BME280;59641;45.188;5.712;2023-01-31T11:49:35;100566.50;;;7.19;50.37
71795;BME280;59641;45.188;5.712;2023-01-31T11:52:21;100561.16;;;7.27;50.17
71795;BME280;59641;45.188;5.712;2023-01-31T11:54:54;100559.66;;;7.33;49.85
71795;BME280;59641;45.188;5.712;2023-01-31T11:57:30;100557.47;;;7.36;50.12
71795;BME280;59641;45.188;5.712;2023-01-31T11:59:59;100556.78;;;7.42;49.89
71795;BME280;59641;45.188;5.712;2023-01-31T12:02:31;100547.28;;;7.48;50.00
71795;BME280;59641;45.188;5.712;2023-01-31T12:04:59;100548.44;;;7.54;49.67
71795;BME280;59641;45.188;5.712;2023-01-31T12:07:28;100545.06;;;7.60;49.87
71795;BME280;59641;45.188;5.712;2023-01-31T12:09:56;100535.34;;;7.67;49.72
71795;BME280;59641;45.188;5.712;2023-01-31T12:12:30;100528.00;;;7.69;49.47
71795;BME280;59641;45.188;5.712;2023-01-31T12:15:03;100527.84;;;7.71;49.44
71795;BME280;59641;45.188;5.712;2023-01-31T12:17:33;100518.47;;;7.75;49.70
71795;BME280;59641;45.188;5.712;2023-01-31T12:20:18;100511.59;;;7.80;49.38
71795;BME280;59641;45.188;5.712;2023-01-31T12:22:54;100511.44;;;7.82;49.22
71795;BME280;59641;45.188;5.712;2023-01-31T12:25:42;100510.41;;;7.83;49.20
71795;BME280;59641;45.188;5.712;2023-01-31T12:30:54;100508.88;;;7.88;49.42
71795;BME280;59641;45.188;5.712;2023-01-31T12:33:38;100499.50;;;7.93;49.01
71795;BME280;59641;45.188;5.712;2023-01-31T12:36:21;100498.69;;;7.92;49.14
71795;BME280;59641;45.188;5.712;2023-01-31T12:42:00;100487.94;;;8.00;49.30
71795;BME280;59641;45.188;5.712;2023-01-31T13:06:42;100476.97;;;8.49;49.16
71795;BME280;59641;45.188;5.712;2023-01-31T13:09:16;100459.53;;;8.53;48.89
71795;BME280;59641;45.188;5.712;2023-01-31T13:11:50;100458.16;;;8.58;48.72
71795;BME280;59641;45.188;5.712;2023-01-31T13:14:20;100448.78;;;8.62;48.95
71795;BME280;59641;45.188;5.712;2023-01-31T13:16:51;100454.59;;;8.65;48.83
71795;BME280;59641;45.188;5.712;2023-01-31T13:19:25;100434.50;;;8.69;48.92
71795;BME280;59641;45.188;5.712;2023-01-31T13:21:58;100441.81;;;8.76;48.74
71795;BME280;59641;45.188;5.712;2023-01-31T13:24:35;100437.72;;;8.80;48.90
71795;BME280;59641;45.188;5.712;2023-01-31T13:27:18;100432.03;;;8.83;48.72
71795;BME280;59641;45.188;5.712;2023-01-31T13:29:50;100426.97;;;8.88;48.86
71795;BME280;59641;45.188;5.712;2023-01-31T13:32:34;100427.41;;;8.91;48.59
71795;BME280;59641;45.188;5.712;2023-01-31T13:35:12;100407.47;;;8.94;48.50
71795;BME280;59641;45.188;5.712;2023-01-31T13:37:44;100415.13;;;8.97;48.59
71795;BME280;59641;45.188;5.712;2023-01-31T13:40:19;100410.25;;;9.01;48.52
71795;BME280;59641;45.188;5.712;2023-01-31T13:42:46;100414.41;;;9.03;48.64
71795;BME280;59641;45.188;5.712;2023-01-31T13:45:25;100406.00;;;9.06;48.53
71795;BME280;59641;45.188;5.712;2023-01-31T13:48:08;100415.34;;;9.10;48.19
71795;BME280;59641;45.188;5.712;2023-01-31T13:50:36;100404.63;;;9.10;48.04
71795;BME280;59641;45.188;5.712;2023-01-31T13:53:06;100404.47;;;9.12;47.86
71795;BME280;59641;45.188;5.712;2023-01-31T13:55:39;100404.91;;;9.15;48.01
71795;BME280;59641;45.188;5.712;2023-01-31T13:58:07;100401.84;;;9.18;48.33
71795;BME280;59641;45.188;5.712;2023-01-31T14:00:48;100400.63;;;9.21;47.96
71795;BME280;59641;45.188;5.712;2023-01-31T14:03:19;100397.97;;;9.21;47.99
71795;BME280;59641;45.188;5.712;2023-01-31T14:05:57;100398.81;;;9.22;48.09
71795;BME280;59641;45.188;5.712;2023-01-31T14:10:52;100389.38;;;9.26;48.05
71795;BME280;59641;45.188;5.712;2023-01-31T14:16:01;100387.00;;;9.31;48.20
71795;BME280;59641;45.188;5.712;2023-01-31T14:18:38;100391.97;;;9.34;47.87
71795;BME280;59641;45.188;5.712;2023-01-31T14:24:02;100401.31;;;9.38;48.08
71795;BME280;59641;45.188;5.712;2023-01-31T14:26:50;100393.28;;;9.38;48.18
71795;BME280;59641;45.188;5.712;2023-01-31T14:29:22;100394.75;;;9.41;48.08
71795;BME280;59641;45.188;5.712;2023-01-31T14:31:50;100402.41;;;9.44;48.12
71795;BME280;59641;45.188;5.712;2023-01-31T14:34:28;100397.47;;;9.47;48.15
71795;BME280;59641;45.188;5.712;2023-01-31T14:45:08;100410.88;;;9.62;47.73
71795;BME280;59641;45.188;5.712;2023-01-31T14:58:05;100418.16;;;9.68;47.25
71795;BME280;59641;45.188;5.712;2023-01-31T15:00:37;100417.97;;;9.70;47.21
71795;BME280;59641;45.188;5.712;2023-01-31T15:05:48;100420.66;;;9.70;47.32
71795;BME280;59641;45.188;5.712;2023-01-31T15:11:03;100417.16;;;9.69;46.83
71795;BME280;59641;45.188;5.712;2023-01-31T15:16:45;100417.31;;;9.68;46.71